TAM1316 SBSP-SBCY
Flight info
| Callsign | TAM1316 |
|---|---|
| Flight time | N/A |
| Altitude | 36000 |
| Route | GERTU UL201 ROBID DCT RODAD UM775 SINIP |
| Aircraft | A319/M-SDE3FGHIRWY/LB1 |
Departure
| Time | N/A |
|---|---|
| Airport | Congonhas–Deputado Freitas Nobre Airport (SBSP) |
Arrival
| Time | 2026-04-12 03:16 |
|---|---|
| Airport | Várzea Grande–Marechal Rondon International Airport (SBCY) |
| Time | Latitude | Longitude | Altitude | Speed | Heading |
|---|---|---|---|---|---|
| 2026-04-12 02:33 | -18.01778 | -52.59075 | 36068 ft | 422 kts | 310° |
| 2026-04-12 02:33 | -17.99804 | -52.61398 | 36068 ft | 422 kts | 310° |
| 2026-04-12 02:34 | -17.95886 | -52.66004 | 36067 ft | 422 kts | 310° |
| 2026-04-12 02:34 | -17.92020 | -52.70547 | 36067 ft | 422 kts | 310° |
| 2026-04-12 02:35 | -17.88087 | -52.75166 | 36068 ft | 422 kts | 310° |
| 2026-04-12 02:35 | -17.84168 | -52.79763 | 36067 ft | 422 kts | 310° |
| 2026-04-12 02:36 | -17.80289 | -52.84309 | 36068 ft | 421 kts | 309° |
| 2026-04-12 02:36 | -17.76370 | -52.88899 | 36068 ft | 419 kts | 309° |
| 2026-04-12 02:37 | -17.72476 | -52.93459 | 36068 ft | 417 kts | 309° |
| 2026-04-12 02:37 | -17.68622 | -52.97968 | 36068 ft | 415 kts | 309° |
| 2026-04-12 02:38 | -17.64744 | -53.02501 | 36068 ft | 413 kts | 309° |
| 2026-04-12 02:38 | -17.60906 | -53.06987 | 36068 ft | 412 kts | 309° |
| 2026-04-12 02:39 | -17.57190 | -53.11330 | 36069 ft | 412 kts | 309° |
| 2026-04-12 02:39 | -17.53295 | -53.15900 | 36067 ft | 411 kts | 309° |
| 2026-04-12 02:40 | -17.49470 | -53.20373 | 36067 ft | 412 kts | 309° |
| 2026-04-12 02:40 | -17.45671 | -53.24802 | 36067 ft | 411 kts | 309° |
| 2026-04-12 02:41 | -17.41809 | -53.29278 | 36066 ft | 411 kts | 309° |
| 2026-04-12 02:41 | -17.37963 | -53.33729 | 36049 ft | 411 kts | 309° |
| 2026-04-12 02:42 | -17.34149 | -53.38153 | 36023 ft | 411 kts | 309° |
| 2026-04-12 02:43 | -17.28441 | -53.44782 | 35986 ft | 411 kts | 309° |
| 2026-04-12 02:43 | -17.24596 | -53.49244 | 35970 ft | 412 kts | 309° |
| 2026-04-12 02:44 | -17.20773 | -53.53678 | 35962 ft | 412 kts | 309° |
| 2026-04-12 02:44 | -17.16901 | -53.58165 | 35959 ft | 412 kts | 309° |
| 2026-04-12 02:45 | -17.13127 | -53.62563 | 35957 ft | 411 kts | 308° |
| 2026-04-12 02:45 | -17.09633 | -53.67272 | 35957 ft | 411 kts | 303° |
| 2026-04-12 02:46 | -17.06642 | -53.72289 | 35958 ft | 412 kts | 297° |
| 2026-04-12 02:46 | -17.03842 | -53.77632 | 35957 ft | 415 kts | 297° |
| 2026-04-12 02:47 | -17.01065 | -53.82944 | 35957 ft | 417 kts | 297° |
| 2026-04-12 02:47 | -16.98256 | -53.88312 | 35957 ft | 420 kts | 297° |
| 2026-04-12 02:48 | -16.95436 | -53.93694 | 35958 ft | 422 kts | 297° |
| 2026-04-12 02:48 | -16.92641 | -53.99024 | 35958 ft | 420 kts | 297° |
| 2026-04-12 02:49 | -16.89815 | -54.04408 | 35958 ft | 420 kts | 297° |
| 2026-04-12 02:49 | -16.87008 | -54.09753 | 35958 ft | 420 kts | 297° |
| 2026-04-12 02:50 | -16.84204 | -54.15109 | 35958 ft | 420 kts | 297° |
| 2026-04-12 02:50 | -16.81376 | -54.20505 | 35958 ft | 420 kts | 297° |
| 2026-04-12 02:51 | -16.78560 | -54.25859 | 35958 ft | 421 kts | 298° |
| 2026-04-12 02:51 | -16.75792 | -54.31114 | 35958 ft | 420 kts | 298° |
| 2026-04-12 02:51 | -16.74359 | -54.33833 | 35840 ft | 422 kts | 298° |
| 2026-04-12 02:52 | -16.72915 | -54.36570 | 35335 ft | 425 kts | 298° |
| 2026-04-12 02:52 | -16.71497 | -54.39256 | 34690 ft | 424 kts | 298° |
| 2026-04-12 02:52 | -16.70078 | -54.41944 | 34037 ft | 424 kts | 298° |
| 2026-04-12 02:52 | -16.68635 | -54.44678 | 33333 ft | 425 kts | 298° |
| 2026-04-12 02:53 | -16.67220 | -54.47359 | 32618 ft | 426 kts | 298° |
| 2026-04-12 02:53 | -16.65782 | -54.50081 | 31880 ft | 427 kts | 298° |
| 2026-04-12 02:53 | -16.62898 | -54.55530 | 30328 ft | 431 kts | 299° |
| 2026-04-12 02:54 | -16.61452 | -54.58260 | 29442 ft | 435 kts | 299° |
| 2026-04-12 02:54 | -16.59977 | -54.61044 | 28598 ft | 437 kts | 300° |
| 2026-04-12 02:54 | -16.58472 | -54.63821 | 27817 ft | 438 kts | 302° |
| 2026-04-12 02:54 | -16.56870 | -54.66484 | 27234 ft | 433 kts | 304° |
| 2026-04-12 02:55 | -16.55224 | -54.69134 | 26720 ft | 428 kts | 304° |
| 2026-04-12 02:55 | -16.53596 | -54.71744 | 26199 ft | 423 kts | 304° |
| 2026-04-12 02:55 | -16.52045 | -54.74226 | 25717 ft | 419 kts | 304° |
| 2026-04-12 02:55 | -16.50448 | -54.76780 | 25227 ft | 415 kts | 304° |
| 2026-04-12 02:56 | -16.48886 | -54.79277 | 24732 ft | 412 kts | 304° |
| 2026-04-12 02:56 | -16.47370 | -54.81700 | 24248 ft | 408 kts | 304° |
| 2026-04-12 02:56 | -16.45804 | -54.84203 | 23753 ft | 405 kts | 305° |
| 2026-04-12 02:56 | -16.44266 | -54.86656 | 23270 ft | 402 kts | 305° |
| 2026-04-12 02:57 | -16.42937 | -54.88759 | 22854 ft | 400 kts | 305° |
| 2026-04-12 02:57 | -16.41208 | -54.91495 | 22311 ft | 398 kts | 305° |
| 2026-04-12 02:57 | -16.39670 | -54.93937 | 21802 ft | 396 kts | 305° |
| 2026-04-12 02:57 | -16.38161 | -54.96334 | 21302 ft | 394 kts | 305° |
| 2026-04-12 02:58 | -16.36656 | -54.98732 | 20823 ft | 392 kts | 305° |
| 2026-04-12 02:58 | -16.35213 | -55.01031 | 20376 ft | 390 kts | 305° |
| 2026-04-12 02:58 | -16.33776 | -55.03321 | 19932 ft | 387 kts | 305° |
| 2026-04-12 02:58 | -16.32300 | -55.05673 | 19479 ft | 385 kts | 305° |
| 2026-04-12 02:59 | -16.30844 | -55.07991 | 19030 ft | 382 kts | 306° |
| 2026-04-12 02:59 | -16.29388 | -55.10311 | 18580 ft | 380 kts | 306° |
| 2026-04-12 02:59 | -16.27941 | -55.12626 | 18129 ft | 378 kts | 306° |
| 2026-04-12 02:59 | -16.26515 | -55.14910 | 17688 ft | 375 kts | 306° |
| 2026-04-12 03:00 | -16.25097 | -55.17176 | 17250 ft | 373 kts | 306° |
| 2026-04-12 03:00 | -16.23678 | -55.19440 | 16810 ft | 371 kts | 306° |
| 2026-04-12 03:00 | -16.22268 | -55.21685 | 16367 ft | 368 kts | 306° |
| 2026-04-12 03:00 | -16.20864 | -55.23918 | 15919 ft | 367 kts | 306° |
| 2026-04-12 03:01 | -16.19478 | -55.26119 | 15470 ft | 365 kts | 306° |
| 2026-04-12 03:01 | -16.18089 | -55.28325 | 15019 ft | 364 kts | 306° |
| 2026-04-12 03:01 | -16.16695 | -55.30539 | 14562 ft | 362 kts | 306° |
| 2026-04-12 03:01 | -16.15316 | -55.32727 | 14120 ft | 361 kts | 306° |
| 2026-04-12 03:02 | -16.13928 | -55.34929 | 13668 ft | 359 kts | 306° |
| 2026-04-12 03:02 | -16.12567 | -55.37088 | 13229 ft | 358 kts | 306° |
| 2026-04-12 03:02 | -16.11196 | -55.39263 | 12787 ft | 356 kts | 306° |
| 2026-04-12 03:02 | -16.09832 | -55.41425 | 12355 ft | 354 kts | 306° |
| 2026-04-12 03:03 | -16.08478 | -55.43570 | 11927 ft | 353 kts | 306° |
| 2026-04-12 03:03 | -16.07126 | -55.45711 | 11507 ft | 350 kts | 306° |
| 2026-04-12 03:03 | -16.05791 | -55.47827 | 11095 ft | 348 kts | 306° |
| 2026-04-12 03:03 | -16.04469 | -55.49920 | 10687 ft | 346 kts | 305° |
| 2026-04-12 03:04 | -16.03154 | -55.52003 | 10307 ft | 341 kts | 305° |
| 2026-04-12 03:04 | -16.01866 | -55.54043 | 9929 ft | 333 kts | 305° |
| 2026-04-12 03:04 | -16.00598 | -55.56053 | 9550 ft | 325 kts | 305° |
| 2026-04-12 03:04 | -15.99365 | -55.58006 | 9171 ft | 318 kts | 305° |
| 2026-04-12 03:05 | -15.98152 | -55.59925 | 8792 ft | 311 kts | 305° |
| 2026-04-12 03:05 | -15.96969 | -55.61796 | 8414 ft | 305 kts | 305° |
| 2026-04-12 03:05 | -15.95811 | -55.63625 | 8072 ft | 297 kts | 305° |
| 2026-04-12 03:05 | -15.94699 | -55.65382 | 7998 ft | 287 kts | 305° |
| 2026-04-12 03:06 | -15.93582 | -55.67146 | 7991 ft | 289 kts | 305° |
| 2026-04-12 03:06 | -15.92498 | -55.68857 | 7989 ft | 288 kts | 305° |
| 2026-04-12 03:06 | -15.91380 | -55.70621 | 7798 ft | 290 kts | 305° |
| 2026-04-12 03:06 | -15.90279 | -55.72358 | 7449 ft | 289 kts | 305° |
| 2026-04-12 03:07 | -15.89165 | -55.74117 | 7095 ft | 287 kts | 305° |
| 2026-04-12 03:07 | -15.88077 | -55.75833 | 6747 ft | 286 kts | 305° |
| 2026-04-12 03:07 | -15.86972 | -55.77573 | 6392 ft | 284 kts | 305° |
| 2026-04-12 03:07 | -15.85869 | -55.79310 | 6036 ft | 283 kts | 305° |
| 2026-04-12 03:08 | -15.84794 | -55.81001 | 5688 ft | 282 kts | 305° |
| 2026-04-12 03:08 | -15.83691 | -55.82737 | 5329 ft | 281 kts | 304° |
| 2026-04-12 03:08 | -15.82617 | -55.84425 | 4976 ft | 277 kts | 304° |
| 2026-04-12 03:08 | -15.81575 | -55.86064 | 4630 ft | 273 kts | 304° |
| 2026-04-12 03:09 | -15.80522 | -55.87720 | 4276 ft | 272 kts | 304° |
| 2026-04-12 03:09 | -15.79476 | -55.89365 | 4021 ft | 270 kts | 304° |
| 2026-04-12 03:09 | -15.78459 | -55.90964 | 3993 ft | 270 kts | 304° |
| 2026-04-12 03:09 | -15.77572 | -55.92605 | 3972 ft | 257 kts | 287° |
| 2026-04-12 03:10 | -15.77597 | -55.94420 | 3974 ft | 243 kts | 248° |
| 2026-04-12 03:10 | -15.78537 | -55.95810 | 3998 ft | 232 kts | 224° |
| 2026-04-12 03:10 | -15.79719 | -55.96974 | 3854 ft | 235 kts | 224° |
| 2026-04-12 03:10 | -15.80860 | -55.98191 | 3375 ft | 234 kts | 228° |
| 2026-04-12 03:11 | -15.81865 | -55.99469 | 2964 ft | 229 kts | 233° |
| 2026-04-12 03:11 | -15.82736 | -56.00832 | 2712 ft | 223 kts | 243° |
| 2026-04-12 03:11 | -15.82990 | -56.02388 | 2595 ft | 212 kts | 286° |
| 2026-04-12 03:11 | -15.82254 | -56.03556 | 2578 ft | 200 kts | 327° |
| 2026-04-12 03:12 | -15.80910 | -56.04034 | 2607 ft | 200 kts | 349° |
| 2026-04-12 03:12 | -15.79561 | -56.04350 | 2581 ft | 189 kts | 345° |
| 2026-04-12 03:12 | -15.78381 | -56.04777 | 2592 ft | 189 kts | 339° |
| 2026-04-12 03:12 | -15.77133 | -56.05361 | 2601 ft | 190 kts | 335° |
| 2026-04-12 03:13 | -15.75990 | -56.05962 | 2559 ft | 178 kts | 334° |
| 2026-04-12 03:13 | -15.74962 | -56.06517 | 2506 ft | 180 kts | 333° |
| 2026-04-12 03:13 | -15.73823 | -56.07130 | 2293 ft | 179 kts | 334° |
| 2026-04-12 03:13 | -15.72737 | -56.07709 | 2045 ft | 169 kts | 334° |
| 2026-04-12 03:14 | -15.71765 | -56.08223 | 1838 ft | 167 kts | 334° |
| 2026-04-12 03:14 | -15.70733 | -56.08772 | 1618 ft | 165 kts | 334° |
| 2026-04-12 03:14 | -15.69741 | -56.09300 | 1391 ft | 155 kts | 333° |
| 2026-04-12 03:14 | -15.68806 | -56.09798 | 1176 ft | 142 kts | 333° |
| 2026-04-12 03:15 | -15.67963 | -56.10248 | 1005 ft | 140 kts | 333° |
| 2026-04-12 03:15 | -15.67086 | -56.10719 | 817 ft | 140 kts | 334° |
| 2026-04-12 03:15 | -15.66238 | -56.11169 | 639 ft | 140 kts | 334° |
| 2026-04-12 03:15 | -15.65645 | -56.11481 | 603 ft | 105 kts | 332° |
| 2026-04-12 03:16 | -15.65244 | -56.11695 | 610 ft | 12 kts | 333° |
| 2026-04-12 03:16 | -15.65200 | -56.11741 | 612 ft | 7 kts | 265° |
| 2026-04-12 03:16 | -15.65212 | -56.11780 | 613 ft | 5 kts | 247° |
| 2026-04-12 03:16 | -15.65222 | -56.11804 | 614 ft | 4 kts | 244° |
| 2026-04-12 03:17 | -15.65223 | -56.11835 | 614 ft | 4 kts | 309° |
| 2026-04-12 03:17 | -15.65196 | -56.11851 | 615 ft | 5 kts | 334° |
| 2026-04-12 03:17 | -15.65158 | -56.11870 | 616 ft | 6 kts | 333° |
| 2026-04-12 03:17 | -15.65121 | -56.11890 | 616 ft | 7 kts | 333° |
| 2026-04-12 03:18 | -15.65079 | -56.11912 | 617 ft | 6 kts | 333° |
| 2026-04-12 03:18 | -15.65036 | -56.11935 | 617 ft | 6 kts | 332° |
| 2026-04-12 03:18 | -15.65012 | -56.11949 | 618 ft | 3 kts | 332° |
| 2026-04-12 03:18 | -15.65007 | -56.11951 | 618 ft | 1 kts | 332° |
| 2026-04-12 03:19 | -15.65002 | -56.11959 | 618 ft | 1 kts | 278° |
| 2026-04-12 03:19 | -15.65008 | -56.11973 | 618 ft | 2 kts | 245° |
| 2026-04-12 03:19 | -15.65017 | -56.11993 | 618 ft | 2 kts | 244° |
| 2026-04-12 03:19 | -15.65020 | -56.12000 | 619 ft | 0 kts | 243° |
| 2026-04-12 03:20 | -15.65021 | -56.12002 | 619 ft | 0 kts | 243° |
| 2026-04-12 03:20 | -15.65022 | -56.12003 | 619 ft | 0 kts | 243° |